createdAt,value
2023-04-01T00:02:00.441Z,94.25
2023-04-01T00:04:29.254Z,94.33
2023-04-01T00:06:56.257Z,94.12
2023-04-01T00:09:23.596Z,94.07
2023-04-01T00:11:51.436Z,93.63
2023-04-01T00:14:19.177Z,92.92
2023-04-01T00:16:46.238Z,92.42
2023-04-01T00:19:14.846Z,92.27
2023-04-01T00:21:42.241Z,92.27
2023-04-01T00:24:09.564Z,91.99
2023-04-01T00:26:36.663Z,92.20
2023-04-01T00:29:04.070Z,92.20
2023-04-01T00:31:31.316Z,92.46
2023-04-01T00:33:58.807Z,92.49
2023-04-01T00:36:26.244Z,93.46
2023-04-01T00:38:54.007Z,93.90
2023-04-01T00:41:22.768Z,94.04
2023-04-01T00:44:14.360Z,94.00
2023-04-01T00:46:41.373Z,93.95
2023-04-01T00:49:10.727Z,93.66
2023-04-01T00:51:39.280Z,93.48
2023-04-01T00:54:08.768Z,92.93
2023-04-01T00:56:40.760Z,92.10
2023-04-01T00:59:17.239Z,92.11
2023-04-01T01:01:44.222Z,92.16
2023-04-01T01:04:41.306Z,92.11
2023-04-01T01:07:14.629Z,92.44
2023-04-01T01:10:11.794Z,92.66
2023-04-01T01:13:04.779Z,93.01
2023-04-01T01:15:47.487Z,93.03
2023-04-01T01:18:23.450Z,93.67
2023-04-01T01:20:56.846Z,94.14
2023-04-01T01:23:51.335Z,94.44
2023-04-01T01:26:30.755Z,94.95
2023-04-01T01:29:09.725Z,94.89
2023-04-01T01:31:58.323Z,95.24
2023-04-01T01:34:31.347Z,95.38
2023-04-01T01:37:14.044Z,95.46
2023-04-01T01:39:42.856Z,95.62
2023-04-01T01:42:14.480Z,95.49
2023-04-01T01:44:45.338Z,95.44
2023-04-01T01:47:14.614Z,95.57
2023-04-01T01:49:44.359Z,95.60
2023-04-01T01:52:12.619Z,96.22
2023-04-01T01:54:53.881Z,95.92
2023-04-01T01:57:27.466Z,95.87
2023-04-01T01:59:59.534Z,95.90
2023-04-01T02:02:27.875Z,95.85
2023-04-01T02:04:55.772Z,95.96
2023-04-01T02:07:28.815Z,95.88
2023-04-01T02:09:57.701Z,96.08
2023-04-01T02:12:25.967Z,96.29
2023-04-01T02:14:58.305Z,95.92
2023-04-01T02:17:30.276Z,96.05
2023-04-01T02:20:01.218Z,96.08
2023-04-01T02:22:38.369Z,95.39
2023-04-01T02:25:29.565Z,95.46
2023-04-01T02:27:59.379Z,95.22
2023-04-01T02:30:29.585Z,95.48
2023-04-01T02:32:59.311Z,95.14
2023-04-01T02:35:26.966Z,95.35
2023-04-01T02:37:57.123Z,95.55
2023-04-01T02:40:24.138Z,95.56
2023-04-01T02:42:51.800Z,95.59
2023-04-01T02:45:18.939Z,95.90
2023-04-01T02:47:46.373Z,96.08
2023-04-01T02:50:13.430Z,96.34
2023-04-01T02:52:40.988Z,96.59
2023-04-01T02:55:08.337Z,96.27
2023-04-01T02:57:36.636Z,96.57
2023-04-01T03:00:04.723Z,96.51
2023-04-01T03:02:32.080Z,96.39
2023-04-01T03:04:59.207Z,96.50
2023-04-01T03:07:26.508Z,96.38
2023-04-01T03:09:53.466Z,96.25
2023-04-01T03:12:20.773Z,96.39
2023-04-01T03:14:47.858Z,96.48
2023-04-01T03:17:15.544Z,96.74
2023-04-01T03:19:42.930Z,96.59
2023-04-01T03:22:12.491Z,96.79
2023-04-01T03:24:39.482Z,96.85
2023-04-01T03:27:06.784Z,96.66
2023-04-01T03:29:33.905Z,96.95
2023-04-01T03:32:01.417Z,96.69
2023-04-01T03:34:28.384Z,96.85
2023-04-01T03:36:56.149Z,96.95
2023-04-01T03:39:23.456Z,96.85
2023-04-01T03:41:51.133Z,96.67
2023-04-01T03:44:19.190Z,96.55
2023-04-01T03:46:47.880Z,96.41
2023-04-01T03:49:16.831Z,96.49
2023-04-01T03:51:44.862Z,96.35
2023-04-01T03:54:12.280Z,96.33
2023-04-01T03:56:42.254Z,96.35
2023-04-01T03:59:09.930Z,96.53
2023-04-01T04:01:39.775Z,96.33
2023-04-01T04:04:07.081Z,96.29
2023-04-01T04:06:38.044Z,96.29
2023-04-01T04:09:05.154Z,96.15
2023-04-01T04:11:36.355Z,95.93
2023-04-01T04:14:03.792Z,95.85
2023-04-01T04:16:31.506Z,96.21
2023-04-01T04:19:00.553Z,96.33
2023-04-01T04:21:28.523Z,96.00
2023-04-01T04:23:55.892Z,95.81
2023-04-01T04:26:23.633Z,95.87
2023-04-01T04:28:51.340Z,95.54
2023-04-01T04:31:25.998Z,95.61
2023-04-01T04:33:53.654Z,95.76
2023-04-01T04:36:22.389Z,95.90
2023-04-01T04:38:50.574Z,96.37
2023-04-01T04:41:20.212Z,96.25
2023-04-01T04:43:56.244Z,96.41
2023-04-01T04:46:24.774Z,96.43
2023-04-01T04:48:52.017Z,96.53
2023-04-01T04:51:21.724Z,96.64
2023-04-01T04:53:52.717Z,96.85
2023-04-01T04:56:23.981Z,96.77
2023-04-01T04:58:51.139Z,96.82
2023-04-01T05:01:19.778Z,96.67
2023-04-01T05:03:48.494Z,96.61
2023-04-01T05:06:17.503Z,97.13
2023-04-01T05:08:45.755Z,96.90
2023-04-01T05:11:15.679Z,96.73
2023-04-01T05:13:43.940Z,96.93
2023-04-01T05:16:17.792Z,96.64
2023-04-01T05:18:44.868Z,96.05
2023-04-01T05:21:14.119Z,95.61
2023-04-01T05:23:41.830Z,95.32
2023-04-01T05:26:14.423Z,95.76
2023-04-01T05:28:41.563Z,95.43
2023-04-01T05:31:10.417Z,95.32
2023-04-01T05:33:37.499Z,95.07
2023-04-01T05:36:13.412Z,94.73
2023-04-01T05:38:41.890Z,94.14
2023-04-01T05:41:09.455Z,94.05
2023-04-01T05:43:41.090Z,92.88
2023-04-01T05:46:09.035Z,92.61
2023-04-01T05:48:36.389Z,92.08
2023-04-01T05:51:05.106Z,91.34
2023-04-01T05:53:33.729Z,91.21
2023-04-01T05:56:05.545Z,91.26
2023-04-01T05:58:32.850Z,91.00
2023-04-01T06:01:12.825Z,90.48
2023-04-01T06:03:43.646Z,89.71
2023-04-01T06:06:20.089Z,89.40
2023-04-01T06:08:47.799Z,89.40
2023-04-01T06:11:30.152Z,89.19
2023-04-01T06:14:12.982Z,88.99
2023-04-01T06:16:59.786Z,88.71
2023-04-01T06:19:53.938Z,88.58
2023-04-01T06:22:50.875Z,88.02
2023-04-01T06:25:48.639Z,88.02
2023-04-01T06:32:05.517Z,87.90
2023-04-01T06:34:39.881Z,87.79
2023-04-01T06:37:39.892Z,87.32
2023-04-01T06:40:24.004Z,87.18
2023-04-01T06:43:29.732Z,87.14
2023-04-01T06:46:10.495Z,87.01
2023-04-01T06:54:51.240Z,86.92
2023-04-01T06:57:38.000Z,86.31
2023-04-01T07:00:30.277Z,85.62
2023-04-01T07:03:46.063Z,84.82
2023-04-01T07:06:32.133Z,84.38
2023-04-01T07:09:04.209Z,83.83
2023-04-01T07:11:35.536Z,83.06
2023-04-01T07:14:23.554Z,81.77
2023-04-01T07:17:00.452Z,81.68
2023-04-01T07:19:36.011Z,80.84
2023-04-01T07:22:40.100Z,79.73
2023-04-01T07:25:14.805Z,80.01
2023-04-01T07:27:47.417Z,79.99
2023-04-01T07:30:20.309Z,79.74
2023-04-01T07:32:56.827Z,79.92
2023-04-01T07:35:42.114Z,79.40
2023-04-01T07:38:33.448Z,78.43
2023-04-01T07:41:14.738Z,77.43
2023-04-01T07:44:05.825Z,77.19
2023-04-01T07:46:54.799Z,75.82
2023-04-01T08:00:42.837Z,70.98
2023-04-01T08:03:19.698Z,70.84
2023-04-01T08:06:01.327Z,69.15
2023-04-01T08:08:47.710Z,68.82
2023-04-01T08:11:38.009Z,67.07
2023-04-01T08:14:26.107Z,67.15
2023-04-01T08:17:02.062Z,67.60
2023-04-01T08:19:51.466Z,66.49
2023-04-01T08:22:30.365Z,66.47
2023-04-01T08:25:03.714Z,66.67
2023-04-01T08:27:57.992Z,65.81
2023-04-01T08:31:01.790Z,64.95
2023-04-01T08:33:31.735Z,64.23
2023-04-01T08:36:13.781Z,61.33
2023-04-01T08:38:59.164Z,60.54
2023-04-01T08:41:57.819Z,58.78
2023-04-01T08:44:46.920Z,59.08
2023-04-01T08:48:01.747Z,58.33
2023-04-01T08:50:57.439Z,56.59
2023-04-01T08:53:53.621Z,55.58
2023-04-01T08:56:36.564Z,54.34
2023-04-01T08:59:44.605Z,52.12
2023-04-01T09:02:44.399Z,50.51
2023-04-01T09:05:38.067Z,51.50
2023-04-01T09:08:18.752Z,53.32
2023-04-01T09:10:49.038Z,55.57
2023-04-01T09:13:43.557Z,56.61
2023-04-01T09:16:37.137Z,57.95
2023-04-01T09:19:26.880Z,58.95
2023-04-01T09:22:13.055Z,59.62
2023-04-01T09:25:18.928Z,59.96
2023-04-01T09:27:57.984Z,59.37
2023-04-01T09:30:37.323Z,59.62
2023-04-01T09:33:12.003Z,59.46
2023-04-01T09:35:50.244Z,60.19
2023-04-01T09:38:54.958Z,60.35
2023-04-01T09:42:03.818Z,59.88
2023-04-01T09:44:34.942Z,59.37
2023-04-01T09:47:11.500Z,59.70
2023-04-01T09:49:50.758Z,59.30
2023-04-01T09:52:39.375Z,59.04
2023-04-01T09:55:07.804Z,58.28
2023-04-01T09:57:53.813Z,56.58
2023-04-01T10:00:29.136Z,55.83
2023-04-01T10:03:17.044Z,55.62
2023-04-01T10:06:22.384Z,56.39
2023-04-01T10:09:41.987Z,57.14
2023-04-01T10:12:28.721Z,57.98
2023-04-01T10:15:20.671Z,59.24
2023-04-01T10:18:06.248Z,60.58
2023-04-01T10:20:56.172Z,60.73
2023-04-01T10:23:52.612Z,61.79
2023-04-01T10:27:03.877Z,61.88
2023-04-01T10:29:54.445Z,62.37
2023-04-01T10:32:42.343Z,62.30
2023-04-01T10:35:13.605Z,62.27
2023-04-01T10:38:12.050Z,62.53
2023-04-01T10:40:49.086Z,62.98
2023-04-01T10:43:41.288Z,62.74
2023-04-01T10:46:42.776Z,62.44
2023-04-01T10:49:17.134Z,62.85
2023-04-01T10:52:08.106Z,62.72
2023-04-01T10:54:47.066Z,62.87
2023-04-01T10:57:38.343Z,63.32
2023-04-01T11:00:21.518Z,63.16
2023-04-01T11:03:38.881Z,62.32
2023-04-01T11:06:28.178Z,62.43
2023-04-01T11:08:55.550Z,62.01
2023-04-01T11:11:56.804Z,61.88
2023-04-01T11:14:59.206Z,62.20
2023-04-01T11:17:49.375Z,62.33
2023-04-01T11:20:48.049Z,61.82
2023-04-01T11:23:51.942Z,61.32
2023-04-01T11:26:51.443Z,61.00
2023-04-01T11:30:00.485Z,61.12
2023-04-01T11:33:05.822Z,60.81
2023-04-01T11:36:16.423Z,60.71
2023-04-01T11:39:11.093Z,60.46
2023-04-01T11:42:12.443Z,60.25
2023-04-01T11:45:06.151Z,60.66
2023-04-01T11:47:56.062Z,60.53
2023-04-01T11:50:44.933Z,60.27
2023-04-01T11:53:27.305Z,60.21
2023-04-01T11:56:18.145Z,59.80
2023-04-01T11:59:22.834Z,60.04
2023-04-01T12:02:08.760Z,60.08
2023-04-01T12:04:43.664Z,60.05
2023-04-01T12:10:34.596Z,60.96
2023-04-01T12:13:17.777Z,60.71
2023-04-01T12:16:18.734Z,61.04
2023-04-01T12:19:11.196Z,61.53
2023-04-01T12:21:44.565Z,62.10
2023-04-01T12:24:42.413Z,62.37
2023-04-01T12:28:03.400Z,62.32
2023-04-01T12:30:52.188Z,62.56
2023-04-01T12:33:48.597Z,62.74
2023-04-01T12:36:38.688Z,63.57
2023-04-01T12:39:24.194Z,63.51
2023-04-01T12:41:57.873Z,63.51
2023-04-01T12:44:56.777Z,63.06
2023-04-01T12:47:42.919Z,62.77
2023-04-01T12:50:29.267Z,63.44
2023-04-01T12:53:04.752Z,63.35
2023-04-01T12:55:46.412Z,63.38
2023-04-01T12:59:28.611Z,63.99
2023-04-01T13:02:15.524Z,63.49
2023-04-01T13:05:34.510Z,64.21
2023-04-01T13:08:31.470Z,64.56
2023-04-01T13:11:17.923Z,65.04
2023-04-01T13:14:05.922Z,65.73
2023-04-01T13:17:08.299Z,66.36
2023-04-01T13:20:05.060Z,66.71
2023-04-01T13:23:17.870Z,67.78
2023-04-01T13:26:10.992Z,68.02
2023-04-01T13:28:48.416Z,68.19
2023-04-01T13:31:30.986Z,67.84
2023-04-01T13:34:24.435Z,68.50
2023-04-01T13:37:15.315Z,68.86
2023-04-01T13:40:03.570Z,68.64
2023-04-01T13:42:35.105Z,69.17
2023-04-01T13:45:20.851Z,69.20
2023-04-01T13:48:06.930Z,68.95
2023-04-01T13:51:03.223Z,69.68
2023-04-01T13:53:42.677Z,70.53
2023-04-01T13:56:34.483Z,70.75
2023-04-01T13:59:37.327Z,71.55
2023-04-01T14:02:26.601Z,72.07
2023-04-01T14:05:41.779Z,72.93
2023-04-01T14:08:28.817Z,73.18
2023-04-01T14:11:26.563Z,74.31
2023-04-01T14:14:09.832Z,75.14
2023-04-01T14:17:02.132Z,76.30
2023-04-01T14:19:40.753Z,77.32
2023-04-01T14:22:39.490Z,78.47
2023-04-01T14:25:30.032Z,79.50
2023-04-01T14:28:04.846Z,79.50
2023-04-01T14:30:53.232Z,79.94
2023-04-01T14:34:04.938Z,80.40
2023-04-01T14:37:06.159Z,80.61
2023-04-01T14:39:59.302Z,80.90
2023-04-01T14:42:31.854Z,80.89
2023-04-01T14:45:32.246Z,80.90
2023-04-01T14:48:18.590Z,81.71
2023-04-01T14:50:58.770Z,81.64
2023-04-01T14:53:26.240Z,82.38
2023-04-01T14:56:03.908Z,82.25
2023-04-01T14:59:01.804Z,82.75
2023-04-01T15:01:43.652Z,82.77
2023-04-01T15:04:45.381Z,82.86
2023-04-01T15:07:42.984Z,83.21
2023-04-01T15:10:46.911Z,82.72
2023-04-01T15:13:31.743Z,83.20
2023-04-01T15:16:05.305Z,83.00
2023-04-01T15:19:15.860Z,82.73
2023-04-01T15:22:03.486Z,82.96
2023-04-01T15:25:02.785Z,83.04
2023-04-01T15:27:46.371Z,82.83
2023-04-01T15:30:23.089Z,83.28
2023-04-01T15:33:11.583Z,83.06
2023-04-01T15:36:00.446Z,83.58
2023-04-01T15:38:55.869Z,84.03
2023-04-01T15:41:30.805Z,84.40
2023-04-01T15:44:40.402Z,84.44
2023-04-01T15:47:25.971Z,84.89
2023-04-01T15:50:16.664Z,85.30
2023-04-01T15:53:24.317Z,85.89
2023-04-01T15:56:08.270Z,85.93
2023-04-01T15:59:13.078Z,86.23
2023-04-01T16:01:56.181Z,86.78
2023-04-01T16:05:04.600Z,86.77
2023-04-01T16:07:32.496Z,86.52
2023-04-01T16:10:37.000Z,87.03
2023-04-01T16:13:24.734Z,86.89
2023-04-01T16:16:31.321Z,87.21
2023-04-01T16:19:07.756Z,87.13
2023-04-01T16:22:01.995Z,87.15
2023-04-01T16:25:07.243Z,87.39
2023-04-01T16:27:58.009Z,87.24
2023-04-01T16:31:08.964Z,87.42
2023-04-01T16:33:57.499Z,87.84
2023-04-01T16:36:34.650Z,88.18
2023-04-01T16:39:28.423Z,88.14
2023-04-01T16:42:26.288Z,88.77
2023-04-01T16:45:09.933Z,88.95
2023-04-01T16:47:46.567Z,88.99
2023-04-01T16:50:22.246Z,88.98
2023-04-01T16:53:00.823Z,89.06
2023-04-01T16:55:54.734Z,89.58
2023-04-01T16:58:38.771Z,89.96
2023-04-01T17:01:18.726Z,90.23
2023-04-01T17:04:09.070Z,90.54
2023-04-01T17:06:50.727Z,90.67
2023-04-01T17:09:17.833Z,90.50
2023-04-01T17:12:06.726Z,90.95
2023-04-01T17:15:15.815Z,91.44
2023-04-01T17:18:02.838Z,91.67
2023-04-01T17:20:42.433Z,92.12
2023-04-01T17:23:13.670Z,92.56
2023-04-01T17:25:52.009Z,92.58
2023-04-01T17:28:37.793Z,92.88
2023-04-01T17:31:43.641Z,93.35
2023-04-01T17:34:16.747Z,93.56
2023-04-01T17:36:55.965Z,94.22
2023-04-01T17:39:44.726Z,94.10
2023-04-01T17:42:21.866Z,94.61
2023-04-01T17:45:16.749Z,94.72
2023-04-01T17:47:59.613Z,94.96
2023-04-01T17:50:54.804Z,95.39
2023-04-01T17:53:47.106Z,95.56
2023-04-01T17:56:45.489Z,95.82
2023-04-01T17:59:35.218Z,96.01
2023-04-01T18:02:28.713Z,95.89
2023-04-01T18:05:22.493Z,96.24
2023-04-01T18:07:58.567Z,96.26
2023-04-01T18:10:54.082Z,96.38
2023-04-01T18:13:31.161Z,96.21
2023-04-01T18:16:08.785Z,96.34
2023-04-01T18:19:02.068Z,96.37
2023-04-01T18:21:30.534Z,96.47
2023-04-01T18:24:44.600Z,96.78
2023-04-01T18:27:31.139Z,96.63
2023-04-01T18:30:08.548Z,96.96
2023-04-01T18:32:49.112Z,96.69
2023-04-01T18:35:26.373Z,97.05
2023-04-01T18:37:58.090Z,96.84
2023-04-01T18:40:46.565Z,97.39
2023-04-01T18:43:38.730Z,97.83
2023-04-01T18:46:41.004Z,97.71
2023-04-01T18:49:52.312Z,97.38
2023-04-01T18:52:30.125Z,97.02
2023-04-01T18:55:04.075Z,97.13
2023-04-01T18:58:03.463Z,97.50
2023-04-01T19:00:40.905Z,97.73
2023-04-01T19:03:27.923Z,97.84
2023-04-01T19:08:42.802Z,98.00
2023-04-01T19:11:41.655Z,97.72
2023-04-01T19:14:19.977Z,98.22
2023-04-01T19:17:02.378Z,98.26
2023-04-01T19:19:48.335Z,98.47
2023-04-01T19:22:31.056Z,98.49
2023-04-01T19:25:30.623Z,98.43
2023-04-01T19:28:47.174Z,98.35
2023-04-01T19:31:59.496Z,98.55
2023-04-01T19:34:48.509Z,98.70
2023-04-01T19:37:46.346Z,98.70
2023-04-01T19:40:50.220Z,98.48
2023-04-01T19:43:37.761Z,98.27
2023-04-01T19:46:25.983Z,98.57
2023-04-01T19:49:05.874Z,98.59
2023-04-01T19:52:13.450Z,98.60
2023-04-01T19:55:11.802Z,98.32
2023-04-01T19:58:14.088Z,98.31
2023-04-01T20:00:58.719Z,98.29
2023-04-01T20:03:30.935Z,98.31
2023-04-01T20:06:05.348Z,98.15
2023-04-01T20:09:17.914Z,98.05
2023-04-01T20:11:47.691Z,97.75
2023-04-01T20:14:27.677Z,97.71
2023-04-01T20:17:04.833Z,97.88
2023-04-01T20:19:38.394Z,97.93
2023-04-01T20:22:19.333Z,97.74
2023-04-01T20:24:48.226Z,97.69
2023-04-01T20:27:15.294Z,97.64
2023-04-01T20:30:08.958Z,97.91
2023-04-01T20:32:59.839Z,97.33
2023-04-01T20:36:07.268Z,97.32
2023-04-01T20:38:42.226Z,96.76
2023-04-01T20:41:29.520Z,96.92
2023-04-01T20:43:59.446Z,97.03
2023-04-01T20:46:26.755Z,97.18
2023-04-01T20:48:56.882Z,97.52
2023-04-01T20:51:27.820Z,97.49
2023-04-01T20:54:25.637Z,97.92
2023-04-01T20:57:41.157Z,98.21
2023-04-01T21:00:32.595Z,98.09
2023-04-01T21:03:18.283Z,98.70
2023-04-01T21:06:04.350Z,98.97
2023-04-01T21:08:59.951Z,99.00
2023-04-01T21:11:32.662Z,99.01
2023-04-01T21:14:17.915Z,99.23
2023-04-01T21:17:23.918Z,99.52
2023-04-01T21:20:00.669Z,99.42
2023-04-01T21:22:41.826Z,99.43
2023-04-01T21:25:27.485Z,99.54
2023-04-01T21:28:16.420Z,99.77
2023-04-01T21:31:34.993Z,100.00
2023-04-01T21:34:32.925Z,99.92
2023-04-01T21:37:19.037Z,100.00
2023-04-01T21:40:06.832Z,100.00
2023-04-01T21:42:50.231Z,100.00
2023-04-01T21:45:57.225Z,100.00
2023-04-01T21:48:54.514Z,100.00
2023-04-01T21:51:40.815Z,100.00
2023-04-01T21:54:32.042Z,100.00
2023-04-01T21:57:08.172Z,100.00
2023-04-01T21:59:41.535Z,100.00
2023-04-01T22:02:37.822Z,100.00
2023-04-01T22:05:21.367Z,100.00
2023-04-01T22:08:03.079Z,100.00
2023-04-01T22:10:36.335Z,100.00
2023-04-01T22:13:26.072Z,100.00
2023-04-01T22:16:18.688Z,100.00
2023-04-01T22:19:23.575Z,100.00
2023-04-01T22:22:14.262Z,100.00
2023-04-01T22:24:44.400Z,100.00
2023-04-01T22:27:35.936Z,100.00
2023-04-01T22:30:21.704Z,100.00
2023-04-01T22:32:53.598Z,100.00
2023-04-01T22:35:39.133Z,99.42
2023-04-01T22:38:28.400Z,99.34
2023-04-01T22:41:13.652Z,99.38
2023-04-01T22:43:44.328Z,99.00
2023-04-01T22:46:27.500Z,98.69
2023-04-01T22:49:07.195Z,98.81
2023-04-01T22:51:46.022Z,98.64
2023-04-01T22:54:29.056Z,98.53
2023-04-01T22:57:01.179Z,98.33
2023-04-01T23:00:13.766Z,98.32
2023-04-01T23:02:48.232Z,98.59
2023-04-01T23:05:19.715Z,98.78
2023-04-01T23:08:11.450Z,98.59
2023-04-01T23:10:55.291Z,98.69
2023-04-01T23:13:49.464Z,98.61
2023-04-01T23:16:20.728Z,98.65
2023-04-01T23:18:58.388Z,98.95
2023-04-01T23:21:52.980Z,99.21
2023-04-01T23:24:46.354Z,98.91
2023-04-01T23:27:20.896Z,99.18
2023-04-01T23:29:47.969Z,99.35
2023-04-01T23:32:20.509Z,99.33
2023-04-01T23:34:50.879Z,99.28
2023-04-01T23:37:20.401Z,99.11
2023-04-01T23:39:54.359Z,99.22
2023-04-01T23:42:42.306Z,99.23
2023-04-01T23:45:18.972Z,99.33
2023-04-01T23:47:47.976Z,99.06
2023-04-01T23:50:19.462Z,98.74
2023-04-01T23:53:04.381Z,98.98
2023-04-01T23:55:35.819Z,99.35
2023-04-01T23:58:06.273Z,99.34
